sensor_id;sensor_type;location;lat;lon;timestamp;pressure;altitude;pressure_sealevel;temperature
18219;BMP180;9234;49.344;11.120;2023-02-23T00:02:18;97113.00;;;8.80
18219;BMP180;9234;49.344;11.120;2023-02-23T00:04:46;97124.00;;;8.70
18219;BMP180;9234;49.344;11.120;2023-02-23T00:07:14;97116.00;;;8.70
18219;BMP180;9234;49.344;11.120;2023-02-23T00:09:45;97121.00;;;8.60
18219;BMP180;9234;49.344;11.120;2023-02-23T00:12:15;97116.00;;;8.60
18219;BMP180;9234;49.344;11.120;2023-02-23T00:14:43;97111.00;;;8.60
18219;BMP180;9234;49.344;11.120;2023-02-23T00:17:12;97121.00;;;8.50
18219;BMP180;9234;49.344;11.120;2023-02-23T00:19:46;97116.00;;;8.50
18219;BMP180;9234;49.344;11.120;2023-02-23T00:22:15;97119.00;;;8.50
18219;BMP180;9234;49.344;11.120;2023-02-23T00:24:43;97122.00;;;8.40
18219;BMP180;9234;49.344;11.120;2023-02-23T00:27:15;97112.00;;;8.50
18219;BMP180;9234;49.344;11.120;2023-02-23T00:29:46;97116.00;;;8.50
18219;BMP180;9234;49.344;11.120;2023-02-23T00:32:16;97111.00;;;8.50
18219;BMP180;9234;49.344;11.120;2023-02-23T00:34:46;97110.00;;;8.50
18219;BMP180;9234;49.344;11.120;2023-02-23T00:37:16;97115.00;;;8.40
18219;BMP180;9234;49.344;11.120;2023-02-23T00:39:47;97112.00;;;8.40
18219;BMP180;9234;49.344;11.120;2023-02-23T00:42:17;97106.00;;;8.40
18219;BMP180;9234;49.344;11.120;2023-02-23T00:44:45;97115.00;;;8.40
18219;BMP180;9234;49.344;11.120;2023-02-23T00:47:14;97121.00;;;8.40
18219;BMP180;9234;49.344;11.120;2023-02-23T00:49:43;97118.00;;;8.40
18219;BMP180;9234;49.344;11.120;2023-02-23T00:52:11;97110.00;;;8.40
18219;BMP180;9234;49.344;11.120;2023-02-23T00:54:41;97106.00;;;8.40
18219;BMP180;9234;49.344;11.120;2023-02-23T00:57:09;97101.00;;;8.30
18219;BMP180;9234;49.344;11.120;2023-02-23T00:59:39;97115.00;;;8.30
18219;BMP180;9234;49.344;11.120;2023-02-23T01:02:08;97115.00;;;8.30
18219;BMP180;9234;49.344;11.120;2023-02-23T01:04:36;97111.00;;;8.30
18219;BMP180;9234;49.344;11.120;2023-02-23T01:07:05;97116.00;;;8.30
18219;BMP180;9234;49.344;11.120;2023-02-23T01:09:33;97115.00;;;8.30
18219;BMP180;9234;49.344;11.120;2023-02-23T01:12:03;97106.00;;;8.20
18219;BMP180;9234;49.344;11.120;2023-02-23T01:14:35;97116.00;;;8.20
18219;BMP180;9234;49.344;11.120;2023-02-23T01:17:05;97117.00;;;8.20
18219;BMP180;9234;49.344;11.120;2023-02-23T01:19:35;97104.00;;;8.20
18219;BMP180;9234;49.344;11.120;2023-02-23T01:22:04;97102.00;;;8.20
18219;BMP180;9234;49.344;11.120;2023-02-23T01:24:32;97104.00;;;8.20
18219;BMP180;9234;49.344;11.120;2023-02-23T01:27:03;97119.00;;;8.20
18219;BMP180;9234;49.344;11.120;2023-02-23T01:29:33;97105.00;;;8.10
18219;BMP180;9234;49.344;11.120;2023-02-23T01:32:01;97111.00;;;8.10
18219;BMP180;9234;49.344;11.120;2023-02-23T01:34:32;97118.00;;;8.10
18219;BMP180;9234;49.344;11.120;2023-02-23T01:37:00;97109.00;;;8.10
18219;BMP180;9234;49.344;11.120;2023-02-23T01:39:32;97109.00;;;8.10
18219;BMP180;9234;49.344;11.120;2023-02-23T01:42:02;97113.00;;;8.10
18219;BMP180;9234;49.344;11.120;2023-02-23T01:45:21;97112.00;;;8.00
18219;BMP180;9234;49.344;11.120;2023-02-23T01:47:54;97111.00;;;8.00
18219;BMP180;9234;49.344;11.120;2023-02-23T01:50:27;97111.00;;;8.00
18219;BMP180;9234;49.344;11.120;2023-02-23T01:52:57;97102.00;;;8.00
18219;BMP180;9234;49.344;11.120;2023-02-23T01:55:26;97093.00;;;8.00
18219;BMP180;9234;49.344;11.120;2023-02-23T01:58:09;97118.00;;;8.00
18219;BMP180;9234;49.344;11.120;2023-02-23T02:00:47;97118.00;;;8.00
18219;BMP180;9234;49.344;11.120;2023-02-23T02:03:28;97111.00;;;7.90
18219;BMP180;9234;49.344;11.120;2023-02-23T02:06:02;97105.00;;;7.90
18219;BMP180;9234;49.344;11.120;2023-02-23T02:08:34;97099.00;;;7.90
18219;BMP180;9234;49.344;11.120;2023-02-23T02:11:09;97097.00;;;7.90
18219;BMP180;9234;49.344;11.120;2023-02-23T02:13:53;97103.00;;;7.80
18219;BMP180;9234;49.344;11.120;2023-02-23T02:16:51;97104.00;;;7.80
18219;BMP180;9234;49.344;11.120;2023-02-23T02:20:28;97093.00;;;7.70
18219;BMP180;9234;49.344;11.120;2023-02-23T02:23:38;97094.00;;;7.70
18219;BMP180;9234;49.344;11.120;2023-02-23T02:26:21;97095.00;;;7.60
18219;BMP180;9234;49.344;11.120;2023-02-23T02:29:41;97095.00;;;7.60
18219;BMP180;9234;49.344;11.120;2023-02-23T02:32:39;97097.00;;;7.50
18219;BMP180;9234;49.344;11.120;2023-02-23T02:38:52;97099.00;;;7.50
18219;BMP180;9234;49.344;11.120;2023-02-23T02:41:33;97100.00;;;7.50
18219;BMP180;9234;49.344;11.120;2023-02-23T02:44:13;97087.00;;;7.40
18219;BMP180;9234;49.344;11.120;2023-02-23T02:46:47;97095.00;;;7.40
18219;BMP180;9234;49.344;11.120;2023-02-23T02:49:28;97085.00;;;7.40
18219;BMP180;9234;49.344;11.120;2023-02-23T02:52:03;97085.00;;;7.40
18219;BMP180;9234;49.344;11.120;2023-02-23T02:54:40;97092.00;;;7.40
18219;BMP180;9234;49.344;11.120;2023-02-23T02:57:11;97085.00;;;7.40
18219;BMP180;9234;49.344;11.120;2023-02-23T02:59:46;97108.00;;;7.40
18219;BMP180;9234;49.344;11.120;2023-02-23T03:02:39;97100.00;;;7.40
18219;BMP180;9234;49.344;11.120;2023-02-23T03:05:34;97103.00;;;7.40
18219;BMP180;9234;49.344;11.120;2023-02-23T03:08:30;97110.00;;;7.30
18219;BMP180;9234;49.344;11.120;2023-02-23T03:11:21;97088.00;;;7.30
18219;BMP180;9234;49.344;11.120;2023-02-23T03:14:23;97092.00;;;7.30
18219;BMP180;9234;49.344;11.120;2023-02-23T03:17:27;97088.00;;;7.30
18219;BMP180;9234;49.344;11.120;2023-02-23T03:20:24;97088.00;;;7.30
18219;BMP180;9234;49.344;11.120;2023-02-23T03:23:20;97093.00;;;7.30
18219;BMP180;9234;49.344;11.120;2023-02-23T03:26:13;97087.00;;;7.30
18219;BMP180;9234;49.344;11.120;2023-02-23T03:29:09;97097.00;;;7.30
18219;BMP180;9234;49.344;11.120;2023-02-23T03:32:06;97106.00;;;7.30
18219;BMP180;9234;49.344;11.120;2023-02-23T03:35:02;97110.00;;;7.20
18219;BMP180;9234;49.344;11.120;2023-02-23T03:37:58;97103.00;;;7.20
18219;BMP180;9234;49.344;11.120;2023-02-23T03:40:48;97110.00;;;7.20
18219;BMP180;9234;49.344;11.120;2023-02-23T03:43:42;97107.00;;;7.20
18219;BMP180;9234;49.344;11.120;2023-02-23T03:46:35;97105.00;;;7.20
18219;BMP180;9234;49.344;11.120;2023-02-23T03:49:24;97098.00;;;7.20
18219;BMP180;9234;49.344;11.120;2023-02-23T03:52:22;97107.00;;;7.10
18219;BMP180;9234;49.344;11.120;2023-02-23T03:55:16;97126.00;;;7.10
18219;BMP180;9234;49.344;11.120;2023-02-23T03:58:05;97117.00;;;7.10
18219;BMP180;9234;49.344;11.120;2023-02-23T04:00:57;97119.00;;;7.10
18219;BMP180;9234;49.344;11.120;2023-02-23T04:03:48;97107.00;;;7.10
18219;BMP180;9234;49.344;11.120;2023-02-23T04:06:41;97114.00;;;7.10
18219;BMP180;9234;49.344;11.120;2023-02-23T04:09:28;97112.00;;;7.10
18219;BMP180;9234;49.344;11.120;2023-02-23T04:12:20;97104.00;;;7.00
18219;BMP180;9234;49.344;11.120;2023-02-23T04:15:12;97108.00;;;7.00
18219;BMP180;9234;49.344;11.120;2023-02-23T04:17:42;97106.00;;;7.00
18219;BMP180;9234;49.344;11.120;2023-02-23T04:20:13;97110.00;;;7.00
18219;BMP180;9234;49.344;11.120;2023-02-23T04:22:41;97112.00;;;6.90
18219;BMP180;9234;49.344;11.120;2023-02-23T04:25:12;97114.00;;;6.90
18219;BMP180;9234;49.344;11.120;2023-02-23T04:27:43;97112.00;;;6.90
18219;BMP180;9234;49.344;11.120;2023-02-23T04:30:12;97114.00;;;6.80
18219;BMP180;9234;49.344;11.120;2023-02-23T04:32:40;97116.00;;;6.80
18219;BMP180;9234;49.344;11.120;2023-02-23T04:35:12;97119.00;;;6.80
18219;BMP180;9234;49.344;11.120;2023-02-23T04:37:41;97107.00;;;6.80
18219;BMP180;9234;49.344;11.120;2023-02-23T04:40:11;97115.00;;;6.70
18219;BMP180;9234;49.344;11.120;2023-02-23T04:42:40;97133.00;;;6.70
18219;BMP180;9234;49.344;11.120;2023-02-23T04:45:10;97109.00;;;6.70
18219;BMP180;9234;49.344;11.120;2023-02-23T04:47:38;97122.00;;;6.60
18219;BMP180;9234;49.344;11.120;2023-02-23T04:50:08;97116.00;;;6.60
18219;BMP180;9234;49.344;11.120;2023-02-23T04:52:38;97125.00;;;6.60
18219;BMP180;9234;49.344;11.120;2023-02-23T04:55:08;97123.00;;;6.60
18219;BMP180;9234;49.344;11.120;2023-02-23T04:57:42;97115.00;;;6.50
18219;BMP180;9234;49.344;11.120;2023-02-23T05:00:11;97116.00;;;6.50
18219;BMP180;9234;49.344;11.120;2023-02-23T05:02:40;97113.00;;;6.50
18219;BMP180;9234;49.344;11.120;2023-02-23T05:05:09;97119.00;;;6.40
18219;BMP180;9234;49.344;11.120;2023-02-23T05:07:39;97124.00;;;6.40
18219;BMP180;9234;49.344;11.120;2023-02-23T05:10:09;97112.00;;;6.40
18219;BMP180;9234;49.344;11.120;2023-02-23T05:12:38;97119.00;;;6.40
18219;BMP180;9234;49.344;11.120;2023-02-23T05:15:07;97116.00;;;6.40
18219;BMP180;9234;49.344;11.120;2023-02-23T05:17:38;97109.00;;;6.30
18219;BMP180;9234;49.344;11.120;2023-02-23T05:20:10;97110.00;;;6.30
18219;BMP180;9234;49.344;11.120;2023-02-23T05:22:40;97114.00;;;6.30
18219;BMP180;9234;49.344;11.120;2023-02-23T05:25:11;97132.00;;;6.30
18219;BMP180;9234;49.344;11.120;2023-02-23T05:27:40;97120.00;;;6.30
18219;BMP180;9234;49.344;11.120;2023-02-23T05:30:09;97109.00;;;6.30
18219;BMP180;9234;49.344;11.120;2023-02-23T05:32:38;97106.00;;;6.30
18219;BMP180;9234;49.344;11.120;2023-02-23T05:35:07;97119.00;;;6.30
18219;BMP180;9234;49.344;11.120;2023-02-23T05:37:35;97114.00;;;6.30
18219;BMP180;9234;49.344;11.120;2023-02-23T05:40:07;97109.00;;;6.30
18219;BMP180;9234;49.344;11.120;2023-02-23T05:42:36;97105.00;;;6.30
18219;BMP180;9234;49.344;11.120;2023-02-23T05:45:06;97103.00;;;6.30
18219;BMP180;9234;49.344;11.120;2023-02-23T05:47:34;97120.00;;;6.30
18219;BMP180;9234;49.344;11.120;2023-02-23T05:50:07;97116.00;;;6.30
18219;BMP180;9234;49.344;11.120;2023-02-23T05:52:37;97132.00;;;6.30
18219;BMP180;9234;49.344;11.120;2023-02-23T05:55:10;97138.00;;;6.30
18219;BMP180;9234;49.344;11.120;2023-02-23T05:57:39;97109.00;;;6.30
18219;BMP180;9234;49.344;11.120;2023-02-23T06:00:10;97126.00;;;6.40
18219;BMP180;9234;49.344;11.120;2023-02-23T06:02:40;97123.00;;;6.40
18219;BMP180;9234;49.344;11.120;2023-02-23T06:05:09;97127.00;;;6.40
18219;BMP180;9234;49.344;11.120;2023-02-23T06:07:38;97123.00;;;6.40
18219;BMP180;9234;49.344;11.120;2023-02-23T06:10:09;97127.00;;;6.40
18219;BMP180;9234;49.344;11.120;2023-02-23T06:12:37;97131.00;;;6.40
18219;BMP180;9234;49.344;11.120;2023-02-23T06:15:07;97133.00;;;6.40
18219;BMP180;9234;49.344;11.120;2023-02-23T06:17:35;97134.00;;;6.50
18219;BMP180;9234;49.344;11.120;2023-02-23T06:20:05;97128.00;;;6.50
18219;BMP180;9234;49.344;11.120;2023-02-23T06:22:33;97146.00;;;6.50
18219;BMP180;9234;49.344;11.120;2023-02-23T06:25:01;97137.00;;;6.50
18219;BMP180;9234;49.344;11.120;2023-02-23T06:27:32;97143.00;;;6.50
18219;BMP180;9234;49.344;11.120;2023-02-23T06:30:00;97142.00;;;6.60
18219;BMP180;9234;49.344;11.120;2023-02-23T06:32:28;97135.00;;;6.60
18219;BMP180;9234;49.344;11.120;2023-02-23T06:35:00;97144.00;;;6.60
18219;BMP180;9234;49.344;11.120;2023-02-23T06:37:29;97148.00;;;6.60
18219;BMP180;9234;49.344;11.120;2023-02-23T06:39:57;97146.00;;;6.60
18219;BMP180;9234;49.344;11.120;2023-02-23T06:42:26;97150.00;;;6.60
18219;BMP180;9234;49.344;11.120;2023-02-23T06:44:55;97157.00;;;6.70
18219;BMP180;9234;49.344;11.120;2023-02-23T06:47:23;97164.00;;;6.70
18219;BMP180;9234;49.344;11.120;2023-02-23T06:49:52;97142.00;;;6.70
18219;BMP180;9234;49.344;11.120;2023-02-23T06:52:20;97157.00;;;6.80
18219;BMP180;9234;49.344;11.120;2023-02-23T06:54:49;97158.00;;;6.80
18219;BMP180;9234;49.344;11.120;2023-02-23T06:57:18;97162.00;;;6.90
18219;BMP180;9234;49.344;11.120;2023-02-23T06:59:46;97172.00;;;6.90
18219;BMP180;9234;49.344;11.120;2023-02-23T07:02:16;97172.00;;;7.00
18219;BMP180;9234;49.344;11.120;2023-02-23T07:04:44;97174.00;;;7.00
18219;BMP180;9234;49.344;11.120;2023-02-23T07:07:13;97179.00;;;7.10
18219;BMP180;9234;49.344;11.120;2023-02-23T07:09:42;97189.00;;;7.20
18219;BMP180;9234;49.344;11.120;2023-02-23T07:12:10;97190.00;;;7.30
18219;BMP180;9234;49.344;11.120;2023-02-23T07:14:38;97187.00;;;7.30
18219;BMP180;9234;49.344;11.120;2023-02-23T07:17:07;97187.00;;;7.40
18219;BMP180;9234;49.344;11.120;2023-02-23T07:19:39;97185.00;;;7.50
18219;BMP180;9234;49.344;11.120;2023-02-23T07:22:08;97184.00;;;7.60
18219;BMP180;9234;49.344;11.120;2023-02-23T07:24:36;97183.00;;;7.70
18219;BMP180;9234;49.344;11.120;2023-02-23T07:27:05;97185.00;;;7.70
18219;BMP180;9234;49.344;11.120;2023-02-23T07:29:33;97194.00;;;7.80
18219;BMP180;9234;49.344;11.120;2023-02-23T07:32:02;97185.00;;;7.90
18219;BMP180;9234;49.344;11.120;2023-02-23T07:34:30;97193.00;;;8.00
18219;BMP180;9234;49.344;11.120;2023-02-23T07:37:00;97189.00;;;8.00
18219;BMP180;9234;49.344;11.120;2023-02-23T07:39:28;97187.00;;;8.10
18219;BMP180;9234;49.344;11.120;2023-02-23T07:41:57;97186.00;;;8.20
18219;BMP180;9234;49.344;11.120;2023-02-23T07:44:25;97186.00;;;8.20
18219;BMP180;9234;49.344;11.120;2023-02-23T07:46:53;97195.00;;;8.30
18219;BMP180;9234;49.344;11.120;2023-02-23T07:49:21;97201.00;;;8.40
18219;BMP180;9234;49.344;11.120;2023-02-23T07:51:50;97181.00;;;8.40
18219;BMP180;9234;49.344;11.120;2023-02-23T07:54:19;97204.00;;;8.50
18219;BMP180;9234;49.344;11.120;2023-02-23T07:56:48;97208.00;;;8.50
18219;BMP180;9234;49.344;11.120;2023-02-23T07:59:17;97202.00;;;8.50
18219;BMP180;9234;49.344;11.120;2023-02-23T08:01:45;97189.00;;;8.60
18219;BMP180;9234;49.344;11.120;2023-02-23T08:04:13;97198.00;;;8.60
18219;BMP180;9234;49.344;11.120;2023-02-23T08:06:42;97183.00;;;8.60
18219;BMP180;9234;49.344;11.120;2023-02-23T08:09:10;97196.00;;;8.70
18219;BMP180;9234;49.344;11.120;2023-02-23T08:11:40;97195.00;;;8.70
18219;BMP180;9234;49.344;11.120;2023-02-23T08:14:10;97194.00;;;8.80
18219;BMP180;9234;49.344;11.120;2023-02-23T08:16:39;97191.00;;;8.80
18219;BMP180;9234;49.344;11.120;2023-02-23T08:19:08;97192.00;;;8.90
18219;BMP180;9234;49.344;11.120;2023-02-23T08:21:37;97204.00;;;8.90
18219;BMP180;9234;49.344;11.120;2023-02-23T08:24:06;97185.00;;;9.00
18219;BMP180;9234;49.344;11.120;2023-02-23T08:26:35;97201.00;;;9.10
18219;BMP180;9234;49.344;11.120;2023-02-23T08:29:05;97198.00;;;9.20
18219;BMP180;9234;49.344;11.120;2023-02-23T08:31:34;97200.00;;;9.20
18219;BMP180;9234;49.344;11.120;2023-02-23T08:34:03;97199.00;;;9.30
18219;BMP180;9234;49.344;11.120;2023-02-23T08:36:31;97192.00;;;9.40
18219;BMP180;9234;49.344;11.120;2023-02-23T08:38:59;97198.00;;;9.50
18219;BMP180;9234;49.344;11.120;2023-02-23T08:41:28;97203.00;;;9.60
18219;BMP180;9234;49.344;11.120;2023-02-23T08:43:57;97198.00;;;9.60
18219;BMP180;9234;49.344;11.120;2023-02-23T08:46:27;97202.00;;;9.80
18219;BMP180;9234;49.344;11.120;2023-02-23T08:48:56;97212.00;;;9.80
18219;BMP180;9234;49.344;11.120;2023-02-23T08:51:24;97194.00;;;9.90
18219;BMP180;9234;49.344;11.120;2023-02-23T08:53:52;97204.00;;;10.00
18219;BMP180;9234;49.344;11.120;2023-02-23T08:56:23;97203.00;;;10.00
18219;BMP180;9234;49.344;11.120;2023-02-23T08:58:52;97203.00;;;10.10
18219;BMP180;9234;49.344;11.120;2023-02-23T09:01:21;97213.00;;;10.10
18219;BMP180;9234;49.344;11.120;2023-02-23T09:03:50;97211.00;;;10.20
18219;BMP180;9234;49.344;11.120;2023-02-23T09:06:21;97202.00;;;10.20
18219;BMP180;9234;49.344;11.120;2023-02-23T09:08:52;97203.00;;;10.20
18219;BMP180;9234;49.344;11.120;2023-02-23T09:11:21;97212.00;;;10.20
18219;BMP180;9234;49.344;11.120;2023-02-23T09:13:50;97202.00;;;10.30
18219;BMP180;9234;49.344;11.120;2023-02-23T09:16:18;97210.00;;;10.30
18219;BMP180;9234;49.344;11.120;2023-02-23T09:18:46;97214.00;;;10.30
18219;BMP180;9234;49.344;11.120;2023-02-23T09:21:18;97212.00;;;10.30
18219;BMP180;9234;49.344;11.120;2023-02-23T09:23:51;97208.00;;;10.40
18219;BMP180;9234;49.344;11.120;2023-02-23T09:26:23;97213.00;;;10.40
18219;BMP180;9234;49.344;11.120;2023-02-23T09:28:52;97207.00;;;10.40
18219;BMP180;9234;49.344;11.120;2023-02-23T09:31:22;97215.00;;;10.40
18219;BMP180;9234;49.344;11.120;2023-02-23T09:33:52;97201.00;;;10.40
18219;BMP180;9234;49.344;11.120;2023-02-23T09:36:24;97208.00;;;10.50
18219;BMP180;9234;49.344;11.120;2023-02-23T09:38:55;97216.00;;;10.50
18219;BMP180;9234;49.344;11.120;2023-02-23T09:41:53;97220.00;;;10.70
18219;BMP180;9234;49.344;11.120;2023-02-23T09:44:41;97218.00;;;10.70
18219;BMP180;9234;49.344;11.120;2023-02-23T09:47:27;97219.00;;;10.80
18219;BMP180;9234;49.344;11.120;2023-02-23T09:50:02;97226.00;;;10.90
18219;BMP180;9234;49.344;11.120;2023-02-23T09:52:39;97220.00;;;10.90
18219;BMP180;9234;49.344;11.120;2023-02-23T09:55:13;97217.00;;;11.00
18219;BMP180;9234;49.344;11.120;2023-02-23T09:57:46;97223.00;;;11.20
18219;BMP180;9234;49.344;11.120;2023-02-23T10:00:22;97225.00;;;11.30
18219;BMP180;9234;49.344;11.120;2023-02-23T10:03:12;97221.00;;;11.40
18219;BMP180;9234;49.344;11.120;2023-02-23T10:05:49;97220.00;;;11.60
18219;BMP180;9234;49.344;11.120;2023-02-23T10:08:41;97220.00;;;11.70
18219;BMP180;9234;49.344;11.120;2023-02-23T10:11:22;97226.00;;;11.90
18219;BMP180;9234;49.344;11.120;2023-02-23T10:14:03;97227.00;;;12.00
18219;BMP180;9234;49.344;11.120;2023-02-23T10:16:48;97224.00;;;12.20
18219;BMP180;9234;49.344;11.120;2023-02-23T10:19:25;97221.00;;;12.40
18219;BMP180;9234;49.344;11.120;2023-02-23T10:22:01;97219.00;;;12.50
18219;BMP180;9234;49.344;11.120;2023-02-23T10:24:36;97223.00;;;12.50
18219;BMP180;9234;49.344;11.120;2023-02-23T10:27:11;97225.00;;;12.60
18219;BMP180;9234;49.344;11.120;2023-02-23T10:29:48;97215.00;;;12.70
18219;BMP180;9234;49.344;11.120;2023-02-23T10:32:23;97219.00;;;12.80
18219;BMP180;9234;49.344;11.120;2023-02-23T10:34:55;97220.00;;;12.90
18219;BMP180;9234;49.344;11.120;2023-02-23T10:37:24;97221.00;;;13.00
18219;BMP180;9234;49.344;11.120;2023-02-23T10:39:55;97240.00;;;13.10
18219;BMP180;9234;49.344;11.120;2023-02-23T10:42:26;97225.00;;;13.20
18219;BMP180;9234;49.344;11.120;2023-02-23T10:44:56;97230.00;;;13.20
18219;BMP180;9234;49.344;11.120;2023-02-23T10:47:28;97218.00;;;13.20
18219;BMP180;9234;49.344;11.120;2023-02-23T10:49:59;97216.00;;;13.20
18219;BMP180;9234;49.344;11.120;2023-02-23T10:52:32;97227.00;;;13.20
18219;BMP180;9234;49.344;11.120;2023-02-23T10:55:23;97213.00;;;13.20
18219;BMP180;9234;49.344;11.120;2023-02-23T10:58:08;97232.00;;;13.20
18219;BMP180;9234;49.344;11.120;2023-02-23T11:00:52;97216.00;;;13.20
18219;BMP180;9234;49.344;11.120;2023-02-23T11:03:29;97224.00;;;13.20
18219;BMP180;9234;49.344;11.120;2023-02-23T11:05:59;97225.00;;;13.20
18219;BMP180;9234;49.344;11.120;2023-02-23T11:08:31;97233.00;;;13.20
18219;BMP180;9234;49.344;11.120;2023-02-23T11:11:17;97230.00;;;13.20
18219;BMP180;9234;49.344;11.120;2023-02-23T11:13:49;97223.00;;;13.20
18219;BMP180;9234;49.344;11.120;2023-02-23T11:16:20;97219.00;;;13.20
18219;BMP180;9234;49.344;11.120;2023-02-23T11:18:53;97222.00;;;13.20
18219;BMP180;9234;49.344;11.120;2023-02-23T11:21:27;97222.00;;;13.10
18219;BMP180;9234;49.344;11.120;2023-02-23T11:24:12;97224.00;;;13.10
18219;BMP180;9234;49.344;11.120;2023-02-23T11:26:48;97204.00;;;13.10
18219;BMP180;9234;49.344;11.120;2023-02-23T11:29:25;97207.00;;;13.10
18219;BMP180;9234;49.344;11.120;2023-02-23T11:31:57;97210.00;;;13.10
18219;BMP180;9234;49.344;11.120;2023-02-23T11:34:32;97208.00;;;13.00
18219;BMP180;9234;49.344;11.120;2023-02-23T11:37:04;97197.00;;;13.00
18219;BMP180;9234;49.344;11.120;2023-02-23T11:39:33;97199.00;;;13.00
18219;BMP180;9234;49.344;11.120;2023-02-23T11:42:21;97198.00;;;13.00
18219;BMP180;9234;49.344;11.120;2023-02-23T11:45:01;97203.00;;;13.00
18219;BMP180;9234;49.344;11.120;2023-02-23T11:47:32;97192.00;;;13.00
18219;BMP180;9234;49.344;11.120;2023-02-23T11:50:03;97180.00;;;12.90
18219;BMP180;9234;49.344;11.120;2023-02-23T11:52:31;97188.00;;;12.90
18219;BMP180;9234;49.344;11.120;2023-02-23T11:55:06;97203.00;;;13.00
18219;BMP180;9234;49.344;11.120;2023-02-23T11:57:44;97187.00;;;13.00
18219;BMP180;9234;49.344;11.120;2023-02-23T12:00:24;97183.00;;;13.10
18219;BMP180;9234;49.344;11.120;2023-02-23T12:02:59;97176.00;;;13.10
18219;BMP180;9234;49.344;11.120;2023-02-23T12:05:29;97182.00;;;13.20
18219;BMP180;9234;49.344;11.120;2023-02-23T12:08:03;97192.00;;;13.30
18219;BMP180;9234;49.344;11.120;2023-02-23T12:10:40;97175.00;;;13.40
18219;BMP180;9234;49.344;11.120;2023-02-23T12:13:22;97175.00;;;13.50
18219;BMP180;9234;49.344;11.120;2023-02-23T12:15:57;97174.00;;;13.50
18219;BMP180;9234;49.344;11.120;2023-02-23T12:18:47;97183.00;;;13.60
18219;BMP180;9234;49.344;11.120;2023-02-23T12:21:30;97185.00;;;13.70
18219;BMP180;9234;49.344;11.120;2023-02-23T12:24:14;97181.00;;;13.70
18219;BMP180;9234;49.344;11.120;2023-02-23T12:26:50;97194.00;;;13.70
18219;BMP180;9234;49.344;11.120;2023-02-23T12:29:30;97172.00;;;13.70
18219;BMP180;9234;49.344;11.120;2023-02-23T12:32:05;97170.00;;;13.60
18219;BMP180;9234;49.344;11.120;2023-02-23T12:34:44;97176.00;;;13.60
18219;BMP180;9234;49.344;11.120;2023-02-23T12:37:28;97170.00;;;13.50
18219;BMP180;9234;49.344;11.120;2023-02-23T12:40:06;97174.00;;;13.40
18219;BMP180;9234;49.344;11.120;2023-02-23T12:42:48;97166.00;;;13.40
18219;BMP180;9234;49.344;11.120;2023-02-23T12:45:31;97157.00;;;13.30
18219;BMP180;9234;49.344;11.120;2023-02-23T12:48:13;97165.00;;;13.30
18219;BMP180;9234;49.344;11.120;2023-02-23T12:50:50;97162.00;;;13.20
18219;BMP180;9234;49.344;11.120;2023-02-23T12:53:25;97160.00;;;13.20
18219;BMP180;9234;49.344;11.120;2023-02-23T12:56:10;97149.00;;;13.20
18219;BMP180;9234;49.344;11.120;2023-02-23T12:58:54;97160.00;;;13.20
18219;BMP180;9234;49.344;11.120;2023-02-23T13:01:33;97154.00;;;13.30
18219;BMP180;9234;49.344;11.120;2023-02-23T13:04:28;97143.00;;;13.30
18219;BMP180;9234;49.344;11.120;2023-02-23T13:07:09;97143.00;;;13.30
18219;BMP180;9234;49.344;11.120;2023-02-23T13:09:53;97154.00;;;13.40
18219;BMP180;9234;49.344;11.120;2023-02-23T13:12:39;97151.00;;;13.40
18219;BMP180;9234;49.344;11.120;2023-02-23T13:15:23;97147.00;;;13.50
18219;BMP180;9234;49.344;11.120;2023-02-23T13:18:02;97136.00;;;13.60
18219;BMP180;9234;49.344;11.120;2023-02-23T13:20:37;97130.00;;;13.70
18219;BMP180;9234;49.344;11.120;2023-02-23T13:23:19;97135.00;;;13.90
18219;BMP180;9234;49.344;11.120;2023-02-23T13:25:56;97137.00;;;14.00
18219;BMP180;9234;49.344;11.120;2023-02-23T13:28:44;97134.00;;;14.00
18219;BMP180;9234;49.344;11.120;2023-02-23T13:31:24;97133.00;;;14.00
18219;BMP180;9234;49.344;11.120;2023-02-23T13:33:57;97133.00;;;13.90
18219;BMP180;9234;49.344;11.120;2023-02-23T13:36:28;97122.00;;;13.80
18219;BMP180;9234;49.344;11.120;2023-02-23T13:39:32;97129.00;;;13.70
18219;BMP180;9234;49.344;11.120;2023-02-23T13:42:17;97138.00;;;13.60
18219;BMP180;9234;49.344;11.120;2023-02-23T13:44:56;97126.00;;;13.50
18219;BMP180;9234;49.344;11.120;2023-02-23T13:47:41;97130.00;;;13.40
18219;BMP180;9234;49.344;11.120;2023-02-23T13:50:24;97127.00;;;13.40
18219;BMP180;9234;49.344;11.120;2023-02-23T13:53:00;97133.00;;;13.30
18219;BMP180;9234;49.344;11.120;2023-02-23T13:55:45;97127.00;;;13.30
18219;BMP180;9234;49.344;11.120;2023-02-23T13:58:28;97145.00;;;13.20
18219;BMP180;9234;49.344;11.120;2023-02-23T14:01:21;97139.00;;;13.10
18219;BMP180;9234;49.344;11.120;2023-02-23T14:03:56;97137.00;;;13.10
18219;BMP180;9234;49.344;11.120;2023-02-23T14:06:29;97132.00;;;13.00
18219;BMP180;9234;49.344;11.120;2023-02-23T14:09:07;97139.00;;;13.00
18219;BMP180;9234;49.344;11.120;2023-02-23T14:11:47;97138.00;;;13.00
18219;BMP180;9234;49.344;11.120;2023-02-23T14:14:40;97135.00;;;13.00
18219;BMP180;9234;49.344;11.120;2023-02-23T14:17:39;97127.00;;;13.00
18219;BMP180;9234;49.344;11.120;2023-02-23T14:20:37;97122.00;;;13.00
18219;BMP180;9234;49.344;11.120;2023-02-23T14:23:48;97120.00;;;13.00
18219;BMP180;9234;49.344;11.120;2023-02-23T14:26:43;97113.00;;;13.00
18219;BMP180;9234;49.344;11.120;2023-02-23T14:29:29;97126.00;;;13.00
18219;BMP180;9234;49.344;11.120;2023-02-23T14:32:28;97124.00;;;13.00
18219;BMP180;9234;49.344;11.120;2023-02-23T14:34:58;97117.00;;;13.00
18219;BMP180;9234;49.344;11.120;2023-02-23T14:37:33;97119.00;;;13.00
18219;BMP180;9234;49.344;11.120;2023-02-23T14:40:11;97118.00;;;13.00
18219;BMP180;9234;49.344;11.120;2023-02-23T14:42:41;97122.00;;;13.00
18219;BMP180;9234;49.344;11.120;2023-02-23T14:45:19;97108.00;;;13.00
18219;BMP180;9234;49.344;11.120;2023-02-23T14:47:57;97123.00;;;13.10
18219;BMP180;9234;49.344;11.120;2023-02-23T14:50:31;97112.00;;;13.10
18219;BMP180;9234;49.344;11.120;2023-02-23T14:53:01;97112.00;;;13.10
18219;BMP180;9234;49.344;11.120;2023-02-23T14:55:32;97117.00;;;13.10
18219;BMP180;9234;49.344;11.120;2023-02-23T14:58:17;97107.00;;;13.20
18219;BMP180;9234;49.344;11.120;2023-02-23T15:00:49;97114.00;;;13.20
18219;BMP180;9234;49.344;11.120;2023-02-23T15:03:19;97111.00;;;13.20
18219;BMP180;9234;49.344;11.120;2023-02-23T15:05:53;97113.00;;;13.20
18219;BMP180;9234;49.344;11.120;2023-02-23T15:08:26;97120.00;;;13.20
18219;BMP180;9234;49.344;11.120;2023-02-23T15:11:02;97118.00;;;13.10